5 day graph

You are here

Error message

  • Notice: Trying to access array offset on value of type int in DrupalRequestSanitizer::stripDangerousValues() (line 102 of /home/twolittl/public_html/cms/includes/request-sanitizer.inc).
  • Notice: Trying to access array offset on value of type int in DrupalRequestSanitizer::stripDangerousValues() (line 102 of /home/twolittl/public_html/cms/includes/request-sanitizer.inc).
  • Notice: Trying to access array offset on value of type int in DrupalRequestSanitizer::stripDangerousValues() (line 102 of /home/twolittl/public_html/cms/includes/request-sanitizer.inc).
  • Notice: Trying to access array offset on value of type int in DrupalRequestSanitizer::stripDangerousValues() (line 102 of /home/twolittl/public_html/cms/includes/request-sanitizer.inc).
  • Notice: Trying to access array offset on value of type int in DrupalRequestSanitizer::stripDangerousValues() (line 102 of /home/twolittl/public_html/cms/includes/request-sanitizer.inc).
  • Notice: Trying to access array offset on value of type int in DrupalRequestSanitizer::stripDangerousValues() (line 102 of /home/twolittl/public_html/cms/includes/request-sanitizer.inc).
  • Notice: Trying to access array offset on value of type int in DrupalRequestSanitizer::stripDangerousValues() (line 102 of /home/twolittl/public_html/cms/includes/request-sanitizer.inc).
  • Notice: Trying to access array offset on value of type int in DrupalRequestSanitizer::stripDangerousValues() (line 102 of /home/twolittl/public_html/cms/includes/request-sanitizer.inc).
  • Notice: Trying to access array offset on value of type int in DrupalRequestSanitizer::stripDangerousValues() (line 102 of /home/twolittl/public_html/cms/includes/request-sanitizer.inc).
  • Notice: Trying to access array offset on value of type int in DrupalRequestSanitizer::stripDangerousValues() (line 102 of /home/twolittl/public_html/cms/includes/request-sanitizer.inc).
  • Deprecated function: Function get_magic_quotes_gpc() is deprecated in phpMyEdit->get_cgi_var() (line 1773 of /home/twolittl/public_html/phpMyEdit.class.php).
  • Deprecated function: implode(): Passing glue string after array is deprecated. Swap the parameters in drupal_get_feeds() (line 394 of /home/twolittl/public_html/cms/includes/common.inc).

Hive Data

Page: 1 of 16645  Records: 998690

Row Date Time Hive Temp Hive Humidity Outside Temp Outside Humidity Bottom Board Temp Outside Wall Temp Electronics Temp Light Levels inHG Fan Heat Cover Notes
Clear Sorted By: Outside Wall Temp ascending, Electronics Temp ascending, inHG ascending, Row descending
View 382423 Mar 1 2015 9:24:00am 66.02 51 35.6 85 35.6 -196.6 51.8 269 29.47 0 0 0 NA
View 382422 Mar 1 2015 9:22:59am 66.02 56 35.42 85 35.6 -196.6 51.8 270 29.47 0 0 0 NA
View 382421 Mar 1 2015 9:21:57am 66.02 50 35.42 85 35.6 -196.6 51.8 269 29.47 0 0 0 NA
View 382420 Mar 1 2015 9:20:56am 65.84 53 35.24 85 35.6 -196.6 51.8 270 29.47 0 0 0 NA
View 382419 Mar 1 2015 9:19:55am 65.84 52 35.06 85 35.6 -196.6 51.8 270 29.47 0 0 0 NA
View 382418 Mar 1 2015 9:18:55am 65.84 48 35.06 86 35.6 -196.6 51.8 269 29.47 0 0 0 NA
View 382417 Mar 1 2015 9:17:54am 65.84 48 34.88 86 35.6 -196.6 51.8 269 29.47 0 0 0 NA
View 382416 Mar 1 2015 9:16:53am 65.84 46 34.7 86 35.6 -196.6 51.8 269 29.47 0 0 0 NA
View 382415 Mar 1 2015 9:15:51am 65.84 46 34.7 86 35.15 -196.6 51.8 269 29.47 0 0 0 NA
View 382413 Mar 1 2015 9:13:49am 65.84 45 34.34 85 35.15 -196.6 51.8 270 29.47 0 0 0 NA
View 382412 Mar 1 2015 9:12:47am 65.84 49 34.34 85 35.15 -196.6 51.8 270 29.47 0 0 0 NA
View 382411 Mar 1 2015 9:11:46am 65.84 50 34.16 85 35.15 -196.6 51.8 270 29.47 0 0 0 NA
View 382408 Mar 1 2015 9:08:44am 65.84 44 33.98 85 35.15 -196.6 51.8 271 29.47 0 0 0 NA
View 382414 Mar 1 2015 9:14:50am 65.84 46 34.52 85 35.15 -196.6 51.8 270 29.48 0 0 0 NA
View 382410 Mar 1 2015 9:10:45am 65.84 46 34.16 85 35.15 -196.6 51.8 270 29.48 0 0 0 NA
View 382409 Mar 1 2015 9:09:44am 65.84 46 34.16 85 35.15 -196.6 51.8 271 29.48 0 0 0 NA
View 382407 Mar 1 2015 9:07:43am 66.02 44 33.8 85 35.15 -196.6 51.8 270 29.48 0 0 0 NA
View 382406 Mar 1 2015 9:06:41am 66.02 49 33.8 85 35.15 -196.6 51.8 271 29.48 0 0 0 NA
View 382405 Mar 1 2015 9:05:40am 66.02 47 33.62 84 35.15 -196.6 51.8 270 29.48 0 0 0 NA
View 382404 Mar 1 2015 9:04:39am 65.84 50 33.62 85 35.15 -196.6 51.8 271 29.48 0 0 0 NA
View 382403 Mar 1 2015 9:03:38am 65.84 48 33.44 84 34.7 -196.6 51.8 271 29.48 0 0 0 NA
View 382402 Mar 1 2015 9:02:36am 65.84 47 33.44 84 34.7 -196.6 51.8 271 29.48 0 0 0 NA
View 382401 Mar 1 2015 9:01:35am 65.84 49 33.44 84 34.7 -196.6 51.8 271 29.48 0 0 0 NA
View 382400 Mar 1 2015 9:00:34am 65.84 46 33.26 84 34.7 -196.6 51.8 271 29.48 0 0 0 NA
View 382399 Mar 1 2015 8:59:33am 65.84 48 33.26 84 34.7 -196.6 51.8 271 29.48 0 0 0 NA
View 382398 Mar 1 2015 8:58:31am 65.84 47 33.08 84 34.7 -196.6 51.8 271 29.48 0 0 0 NA
View 382397 Mar 1 2015 8:57:30am 65.84 48 33.08 84 34.7 -196.6 51.8 271 29.48 0 0 0 NA
View 382396 Mar 1 2015 8:56:29am 65.84 46 33.08 84 34.7 -196.6 51.8 271 29.48 0 0 0 NA
View 382395 Mar 1 2015 8:55:28am 65.84 48 32.9 83 34.7 -196.6 51.8 271 29.48 0 0 0 NA
View 382394 Mar 1 2015 8:54:28am 65.84 47 32.9 83 34.7 -196.6 51.8 271 29.48 0 0 0 NA
View 382393 Mar 1 2015 8:53:27am 65.66 49 32.72 84 34.7 -196.6 51.8 271 29.48 0 0 0 NA
View 382392 Mar 1 2015 8:52:25am 65.66 49 32.72 83 34.7 -196.6 51.8 271 29.48 0 0 0 NA
View 382391 Mar 1 2015 8:51:24am 65.66 51 32.72 83 34.7 -196.6 51.8 271 29.48 0 0 0 NA
View 382390 Mar 1 2015 8:50:23am 65.48 48 32.54 83 34.7 -196.6 51.8 271 29.48 0 0 0 NA
View 382389 Mar 1 2015 8:49:21am 65.48 44 32.54 82 34.7 -196.6 51.8 271 29.48 0 0 0 NA
View 382388 Mar 1 2015 8:48:20am 65.48 44 32.54 83 34.25 -196.6 51.8 271 29.48 0 0 0 NA
View 382387 Mar 1 2015 8:47:19am 65.66 43 32.36 83 34.25 -196.6 51.8 271 29.48 0 0 0 NA
View 382386 Mar 1 2015 8:46:18am 65.66 42 32.36 83 34.25 -196.6 51.8 271 29.48 0 0 0 NA
View 382385 Mar 1 2015 8:45:16am 65.84 43 32.18 83 34.25 -196.6 51.8 271 29.48 0 0 0 NA
View 382384 Mar 1 2015 8:44:15am 65.84 44 32.18 83 34.25 -196.6 51.8 271 29.48 0 0 0 NA
View 382379 Mar 1 2015 8:39:10am 66.2 43 31.82 84 34.25 -196.6 51.8 271 29.48 0 0 0 NA
View 382383 Mar 1 2015 8:43:15am 66.02 45 32.18 83 34.25 -196.6 51.8 271 29.49 0 0 0 NA
View 382382 Mar 1 2015 8:42:14am 66.02 49 32.18 83 34.25 -196.6 51.8 271 29.49 0 0 0 NA
View 382381 Mar 1 2015 8:41:13am 65.84 43 32 83 34.25 -196.6 51.8 271 29.49 0 0 0 NA
View 382380 Mar 1 2015 8:40:12am 66.02 46 31.82 83 34.25 -196.6 51.8 272 29.49 0 0 0 NA
View 382378 Mar 1 2015 8:38:09am 66.2 42 31.82 84 34.25 -196.6 51.8 271 29.49 0 0 0 NA
View 382377 Mar 1 2015 8:37:08am 66.38 45 31.64 83 34.25 -196.6 51.8 271 29.49 0 0 0 NA
View 382376 Mar 1 2015 8:36:07am 66.38 47 31.64 84 34.25 -196.6 51.8 271 29.49 0 0 0 NA
View 382375 Mar 1 2015 8:35:05am 66.38 54 31.46 83 34.25 -196.6 51.8 271 29.49 0 0 0 NA
View 382374 Mar 1 2015 8:34:04am 66.2 50 31.28 83 34.25 -196.6 51.8 272 29.49 0 0 0 NA
View 382373 Mar 1 2015 8:33:04am 66.2 52 31.28 83 34.25 -196.6 51.8 271 29.49 0 0 0 NA
View 382372 Mar 1 2015 8:32:03am 66.2 47 31.28 83 34.25 -196.6 51.8 272 29.49 0 0 0 NA
View 382371 Mar 1 2015 8:31:02am 66.2 49 31.28 83 34.25 -196.6 51.8 272 29.49 0 0 0 NA
View 382370 Mar 1 2015 8:30:00am 66.2 46 31.1 83 34.25 -196.6 51.8 272 29.49 0 0 0 NA
View 382369 Mar 1 2015 8:28:59am 66.2 45 31.1 83 34.25 -196.6 51.8 272 29.49 0 0 0 NA
View 382368 Mar 1 2015 8:27:58am 66.2 48 31.1 83 34.25 -196.6 51.8 272 29.49 0 0 0 NA
View 382367 Mar 1 2015 8:26:57am 66.02 50 31.1 82 34.25 -196.6 51.8 271 29.49 0 0 0 NA
View 382366 Mar 1 2015 8:25:55am 66.02 50 30.92 81 34.25 -196.6 51.8 272 29.49 0 0 0 NA
View 382365 Mar 1 2015 8:24:54am 66.02 48 30.92 81 34.25 -196.6 51.8 272 29.49 0 0 0 NA
View 382364 Mar 1 2015 8:23:53am 65.84 45 30.92 81 34.25 -196.6 51.8 271 29.49 0 0 0 NA